sensor_id;sensor_type;location;lat;lon;timestamp;temperature;humidity
66928;DHT22;59882;45.624;11.698;2023-05-07T00:02:04;19.10;65.60
66928;DHT22;59882;45.624;11.698;2023-05-07T00:04:30;19.00;65.20
66928;DHT22;59882;45.624;11.698;2023-05-07T00:07:02;19.00;65.30
66928;DHT22;59882;45.624;11.698;2023-05-07T00:09:27;19.00;65.70
66928;DHT22;59882;45.624;11.698;2023-05-07T00:11:53;19.00;65.60
66928;DHT22;59882;45.624;11.698;2023-05-07T00:14:19;18.90;66.20
66928;DHT22;59882;45.624;11.698;2023-05-07T00:16:44;18.90;66.10
66928;DHT22;59882;45.624;11.698;2023-05-07T00:19:10;18.90;65.90
66928;DHT22;59882;45.624;11.698;2023-05-07T00:21:35;18.90;66.00
66928;DHT22;59882;45.624;11.698;2023-05-07T00:24:01;18.90;66.10
66928;DHT22;59882;45.624;11.698;2023-05-07T00:26:27;18.90;66.10
66928;DHT22;59882;45.624;11.698;2023-05-07T00:28:52;18.90;66.10
66928;DHT22;59882;45.624;11.698;2023-05-07T00:31:18;18.90;66.20
66928;DHT22;59882;45.624;11.698;2023-05-07T00:33:43;18.90;66.80
66928;DHT22;59882;45.624;11.698;2023-05-07T00:36:09;18.80;66.30
66928;DHT22;59882;45.624;11.698;2023-05-07T00:38:35;18.80;66.90
66928;DHT22;59882;45.624;11.698;2023-05-07T00:41:00;18.70;66.70
66928;DHT22;59882;45.624;11.698;2023-05-07T00:43:27;18.60;66.40
66928;DHT22;59882;45.624;11.698;2023-05-07T00:45:53;18.60;66.40
66928;DHT22;59882;45.624;11.698;2023-05-07T00:48:19;18.60;66.70
66928;DHT22;59882;45.624;11.698;2023-05-07T00:50:45;18.50;66.70
66928;DHT22;59882;45.624;11.698;2023-05-07T00:53:12;18.50;66.90
66928;DHT22;59882;45.624;11.698;2023-05-07T00:55:38;18.40;67.50
66928;DHT22;59882;45.624;11.698;2023-05-07T00:58:04;18.40;67.30
66928;DHT22;59882;45.624;11.698;2023-05-07T01:00:31;18.40;67.30
66928;DHT22;59882;45.624;11.698;2023-05-07T01:02:57;18.30;67.50
66928;DHT22;59882;45.624;11.698;2023-05-07T01:05:23;18.20;67.80
66928;DHT22;59882;45.624;11.698;2023-05-07T01:07:50;18.20;67.60
66928;DHT22;59882;45.624;11.698;2023-05-07T01:10:17;18.10;68.30
66928;DHT22;59882;45.624;11.698;2023-05-07T01:12:44;18.10;68.40
66928;DHT22;59882;45.624;11.698;2023-05-07T01:15:11;18.00;68.70
66928;DHT22;59882;45.624;11.698;2023-05-07T01:17:39;17.90;68.30
66928;DHT22;59882;45.624;11.698;2023-05-07T01:20:06;17.90;68.70
66928;DHT22;59882;45.624;11.698;2023-05-07T01:22:39;17.90;68.70
66928;DHT22;59882;45.624;11.698;2023-05-07T01:25:06;17.90;68.60
66928;DHT22;59882;45.624;11.698;2023-05-07T01:27:32;17.90;69.40
66928;DHT22;59882;45.624;11.698;2023-05-07T01:30:03;17.90;69.00
66928;DHT22;59882;45.624;11.698;2023-05-07T01:32:37;17.90;69.20
66928;DHT22;59882;45.624;11.698;2023-05-07T01:35:05;17.90;69.30
66928;DHT22;59882;45.624;11.698;2023-05-07T01:37:32;18.00;69.30
66928;DHT22;59882;45.624;11.698;2023-05-07T01:39:57;18.00;69.20
66928;DHT22;59882;45.624;11.698;2023-05-07T01:42:24;18.10;69.30
66928;DHT22;59882;45.624;11.698;2023-05-07T01:44:49;18.10;69.50
66928;DHT22;59882;45.624;11.698;2023-05-07T01:47:16;18.10;69.50
66928;DHT22;59882;45.624;11.698;2023-05-07T01:49:42;18.10;69.50
66928;DHT22;59882;45.624;11.698;2023-05-07T01:52:09;18.10;69.40
66928;DHT22;59882;45.624;11.698;2023-05-07T01:54:35;18.10;69.50
66928;DHT22;59882;45.624;11.698;2023-05-07T01:57:01;18.20;69.90
66928;DHT22;59882;45.624;11.698;2023-05-07T01:59:26;18.20;69.80
66928;DHT22;59882;45.624;11.698;2023-05-07T02:01:52;18.20;69.40
66928;DHT22;59882;45.624;11.698;2023-05-07T02:04:17;18.10;69.20
66928;DHT22;59882;45.624;11.698;2023-05-07T02:06:43;18.10;69.20
66928;DHT22;59882;45.624;11.698;2023-05-07T02:09:09;18.10;69.20
66928;DHT22;59882;45.624;11.698;2023-05-07T02:11:35;18.10;69.30
66928;DHT22;59882;45.624;11.698;2023-05-07T02:14:00;18.00;69.60
66928;DHT22;59882;45.624;11.698;2023-05-07T02:16:26;18.00;69.30
66928;DHT22;59882;45.624;11.698;2023-05-07T02:18:51;18.10;69.30
66928;DHT22;59882;45.624;11.698;2023-05-07T02:21:17;18.10;69.30
66928;DHT22;59882;45.624;11.698;2023-05-07T02:23:43;18.10;69.60
66928;DHT22;59882;45.624;11.698;2023-05-07T02:26:09;18.10;69.30
66928;DHT22;59882;45.624;11.698;2023-05-07T02:28:34;18.00;69.20
66928;DHT22;59882;45.624;11.698;2023-05-07T02:31:03;17.90;69.10
66928;DHT22;59882;45.624;11.698;2023-05-07T02:33:28;17.90;69.20
66928;DHT22;59882;45.624;11.698;2023-05-07T02:35:54;17.90;69.30
66928;DHT22;59882;45.624;11.698;2023-05-07T02:38:20;17.90;69.50
66928;DHT22;59882;45.624;11.698;2023-05-07T02:40:46;17.90;69.60
66928;DHT22;59882;45.624;11.698;2023-05-07T02:43:11;17.90;69.70
66928;DHT22;59882;45.624;11.698;2023-05-07T02:45:37;17.90;69.70
66928;DHT22;59882;45.624;11.698;2023-05-07T02:48:03;17.90;70.00
66928;DHT22;59882;45.624;11.698;2023-05-07T02:50:29;17.90;70.00
66928;DHT22;59882;45.624;11.698;2023-05-07T02:52:55;17.70;69.50
66928;DHT22;59882;45.624;11.698;2023-05-07T02:55:21;17.60;69.60
66928;DHT22;59882;45.624;11.698;2023-05-07T02:57:46;17.50;69.70
66928;DHT22;59882;45.624;11.698;2023-05-07T03:00:17;17.40;69.90
66928;DHT22;59882;45.624;11.698;2023-05-07T03:02:43;17.30;70.10
66928;DHT22;59882;45.624;11.698;2023-05-07T03:05:09;17.20;70.40
66928;DHT22;59882;45.624;11.698;2023-05-07T03:07:36;17.20;70.80
66928;DHT22;59882;45.624;11.698;2023-05-07T03:10:02;17.20;70.60
66928;DHT22;59882;45.624;11.698;2023-05-07T03:12:27;17.20;70.80
66928;DHT22;59882;45.624;11.698;2023-05-07T03:14:53;17.20;70.80
66928;DHT22;59882;45.624;11.698;2023-05-07T03:17:18;17.20;71.20
66928;DHT22;59882;45.624;11.698;2023-05-07T03:19:44;17.20;70.80
66928;DHT22;59882;45.624;11.698;2023-05-07T03:22:10;17.20;71.10
66928;DHT22;59882;45.624;11.698;2023-05-07T03:24:35;17.20;71.00
66928;DHT22;59882;45.624;11.698;2023-05-07T03:27:01;17.20;71.40
66928;DHT22;59882;45.624;11.698;2023-05-07T03:29:26;17.20;71.00
66928;DHT22;59882;45.624;11.698;2023-05-07T03:31:52;17.10;71.20
66928;DHT22;59882;45.624;11.698;2023-05-07T03:34:18;17.10;71.10
66928;DHT22;59882;45.624;11.698;2023-05-07T03:36:50;17.10;71.30
66928;DHT22;59882;45.624;11.698;2023-05-07T03:39:16;17.10;71.20
66928;DHT22;59882;45.624;11.698;2023-05-07T03:41:41;17.10;71.40
66928;DHT22;59882;45.624;11.698;2023-05-07T03:44:07;17.10;71.50
66928;DHT22;59882;45.624;11.698;2023-05-07T03:46:33;17.10;71.40
66928;DHT22;59882;45.624;11.698;2023-05-07T03:48:59;17.10;71.70
66928;DHT22;59882;45.624;11.698;2023-05-07T03:51:25;17.10;71.40
66928;DHT22;59882;45.624;11.698;2023-05-07T03:53:51;17.10;71.30
66928;DHT22;59882;45.624;11.698;2023-05-07T03:56:22;17.10;71.60
66928;DHT22;59882;45.624;11.698;2023-05-07T03:58:48;17.10;71.70
66928;DHT22;59882;45.624;11.698;2023-05-07T04:01:14;17.10;71.50
66928;DHT22;59882;45.624;11.698;2023-05-07T04:03:39;17.10;71.30
66928;DHT22;59882;45.624;11.698;2023-05-07T04:06:05;17.10;71.60
66928;DHT22;59882;45.624;11.698;2023-05-07T04:08:31;17.00;71.60
66928;DHT22;59882;45.624;11.698;2023-05-07T04:10:57;17.00;71.30
66928;DHT22;59882;45.624;11.698;2023-05-07T04:13:23;16.90;71.60
66928;DHT22;59882;45.624;11.698;2023-05-07T04:15:49;16.90;72.10
66928;DHT22;59882;45.624;11.698;2023-05-07T04:18:15;16.80;71.60
66928;DHT22;59882;45.624;11.698;2023-05-07T04:20:41;16.70;71.80
66928;DHT22;59882;45.624;11.698;2023-05-07T04:23:07;16.70;71.90
66928;DHT22;59882;45.624;11.698;2023-05-07T04:25:32;16.70;72.00
66928;DHT22;59882;45.624;11.698;2023-05-07T04:27:58;16.70;72.20
66928;DHT22;59882;45.624;11.698;2023-05-07T04:30:24;16.60;73.00
66928;DHT22;59882;45.624;11.698;2023-05-07T04:32:50;16.70;72.60
66928;DHT22;59882;45.624;11.698;2023-05-07T04:35:16;16.70;72.70
66928;DHT22;59882;45.624;11.698;2023-05-07T04:37:42;16.70;72.80
66928;DHT22;59882;45.624;11.698;2023-05-07T04:40:08;16.80;72.80
66928;DHT22;59882;45.624;11.698;2023-05-07T04:42:33;16.80;73.00
66928;DHT22;59882;45.624;11.698;2023-05-07T04:44:59;16.90;72.70
66928;DHT22;59882;45.624;11.698;2023-05-07T04:47:25;16.90;72.70
66928;DHT22;59882;45.624;11.698;2023-05-07T04:49:51;17.00;72.70
66928;DHT22;59882;45.624;11.698;2023-05-07T04:52:16;17.00;72.50
66928;DHT22;59882;45.624;11.698;2023-05-07T04:54:42;17.00;72.90
66928;DHT22;59882;45.624;11.698;2023-05-07T04:57:08;17.00;72.70
66928;DHT22;59882;45.624;11.698;2023-05-07T04:59:33;17.00;72.90
66928;DHT22;59882;45.624;11.698;2023-05-07T05:01:59;17.10;72.50
66928;DHT22;59882;45.624;11.698;2023-05-07T05:04:25;17.10;72.70
66928;DHT22;59882;45.624;11.698;2023-05-07T05:06:51;17.10;72.70
66928;DHT22;59882;45.624;11.698;2023-05-07T05:09:16;17.10;72.50
66928;DHT22;59882;45.624;11.698;2023-05-07T05:11:42;17.10;72.50
66928;DHT22;59882;45.624;11.698;2023-05-07T05:14:07;17.10;72.60
66928;DHT22;59882;45.624;11.698;2023-05-07T05:16:33;17.20;72.30
66928;DHT22;59882;45.624;11.698;2023-05-07T05:18:59;17.20;72.70
66928;DHT22;59882;45.624;11.698;2023-05-07T05:21:25;17.30;72.60
66928;DHT22;59882;45.624;11.698;2023-05-07T05:23:51;17.30;72.30
66928;DHT22;59882;45.624;11.698;2023-05-07T05:26:17;17.30;72.30
66928;DHT22;59882;45.624;11.698;2023-05-07T05:28:43;17.30;72.20
66928;DHT22;59882;45.624;11.698;2023-05-07T05:31:08;17.30;72.30
66928;DHT22;59882;45.624;11.698;2023-05-07T05:33:34;17.40;72.40
66928;DHT22;59882;45.624;11.698;2023-05-07T05:36:00;17.40;72.20
66928;DHT22;59882;45.624;11.698;2023-05-07T05:38:26;17.40;72.10
66928;DHT22;59882;45.624;11.698;2023-05-07T05:40:52;17.40;72.40
66928;DHT22;59882;45.624;11.698;2023-05-07T05:43:17;17.40;72.30
66928;DHT22;59882;45.624;11.698;2023-05-07T05:45:43;17.40;72.50
66928;DHT22;59882;45.624;11.698;2023-05-07T05:48:09;17.40;72.40
66928;DHT22;59882;45.624;11.698;2023-05-07T05:50:35;17.40;72.50
66928;DHT22;59882;45.624;11.698;2023-05-07T05:53:03;17.50;72.30
66928;DHT22;59882;45.624;11.698;2023-05-07T05:55:30;17.50;72.50
66928;DHT22;59882;45.624;11.698;2023-05-07T05:57:58;17.60;72.20
66928;DHT22;59882;45.624;11.698;2023-05-07T06:00:24;17.60;72.20
66928;DHT22;59882;45.624;11.698;2023-05-07T06:02:49;17.70;72.00
66928;DHT22;59882;45.624;11.698;2023-05-07T06:05:15;17.90;72.40
66928;DHT22;59882;45.624;11.698;2023-05-07T06:07:41;17.90;71.80
66928;DHT22;59882;45.624;11.698;2023-05-07T06:10:07;17.90;71.70
66928;DHT22;59882;45.624;11.698;2023-05-07T06:12:33;18.00;71.60
66928;DHT22;59882;45.624;11.698;2023-05-07T06:14:59;18.10;71.50
66928;DHT22;59882;45.624;11.698;2023-05-07T06:17:25;18.20;71.60
66928;DHT22;59882;45.624;11.698;2023-05-07T06:19:51;18.40;72.20
66928;DHT22;59882;45.624;11.698;2023-05-07T06:22:17;18.40;71.90
66928;DHT22;59882;45.624;11.698;2023-05-07T06:24:43;18.50;71.90
66928;DHT22;59882;45.624;11.698;2023-05-07T06:27:09;18.60;71.30
66928;DHT22;59882;45.624;11.698;2023-05-07T06:29:35;18.80;71.00
66928;DHT22;59882;45.624;11.698;2023-05-07T06:32:11;18.90;71.00
66928;DHT22;59882;45.624;11.698;2023-05-07T06:34:37;18.90;70.30
66928;DHT22;59882;45.624;11.698;2023-05-07T06:37:03;19.00;70.20
66928;DHT22;59882;45.624;11.698;2023-05-07T06:39:29;19.10;70.10
66928;DHT22;59882;45.624;11.698;2023-05-07T06:41:55;19.20;70.10
66928;DHT22;59882;45.624;11.698;2023-05-07T06:44:21;19.30;70.10
66928;DHT22;59882;45.624;11.698;2023-05-07T06:46:46;19.40;69.80
66928;DHT22;59882;45.624;11.698;2023-05-07T06:49:13;19.40;69.80
66928;DHT22;59882;45.624;11.698;2023-05-07T06:51:39;19.40;69.60
66928;DHT22;59882;45.624;11.698;2023-05-07T06:54:05;19.50;69.50
66928;DHT22;59882;45.624;11.698;2023-05-07T06:56:31;19.60;69.60
66928;DHT22;59882;45.624;11.698;2023-05-07T06:58:57;19.60;69.50
66928;DHT22;59882;45.624;11.698;2023-05-07T07:01:23;19.90;69.00
66928;DHT22;59882;45.624;11.698;2023-05-07T07:03:48;19.90;68.90
66928;DHT22;59882;45.624;11.698;2023-05-07T07:06:15;20.20;68.90
66928;DHT22;59882;45.624;11.698;2023-05-07T07:08:40;20.30;68.60
66928;DHT22;59882;45.624;11.698;2023-05-07T07:11:06;20.40;67.90
66928;DHT22;59882;45.624;11.698;2023-05-07T07:13:32;20.50;67.60
66928;DHT22;59882;45.624;11.698;2023-05-07T07:15:59;20.60;66.90
66928;DHT22;59882;45.624;11.698;2023-05-07T07:18:25;20.60;65.90
66928;DHT22;59882;45.624;11.698;2023-05-07T07:20:51;20.70;65.20
66928;DHT22;59882;45.624;11.698;2023-05-07T07:23:17;20.80;65.80
66928;DHT22;59882;45.624;11.698;2023-05-07T07:25:43;20.80;65.80
66928;DHT22;59882;45.624;11.698;2023-05-07T07:28:32;20.90;65.10
66928;DHT22;59882;45.624;11.698;2023-05-07T07:30:58;20.90;65.70
66928;DHT22;59882;45.624;11.698;2023-05-07T07:33:24;21.00;65.30
66928;DHT22;59882;45.624;11.698;2023-05-07T07:35:50;21.10;64.90
66928;DHT22;59882;45.624;11.698;2023-05-07T07:38:16;21.20;65.20
66928;DHT22;59882;45.624;11.698;2023-05-07T07:40:42;21.20;65.80
66928;DHT22;59882;45.624;11.698;2023-05-07T07:43:09;21.40;65.70
66928;DHT22;59882;45.624;11.698;2023-05-07T07:45:35;21.50;64.20
66928;DHT22;59882;45.624;11.698;2023-05-07T07:48:00;21.60;63.30
66928;DHT22;59882;45.624;11.698;2023-05-07T07:50:27;21.70;63.40
66928;DHT22;59882;45.624;11.698;2023-05-07T07:52:53;21.80;62.40
66928;DHT22;59882;45.624;11.698;2023-05-07T07:55:20;21.80;62.60
66928;DHT22;59882;45.624;11.698;2023-05-07T07:57:49;21.90;61.60
66928;DHT22;59882;45.624;11.698;2023-05-07T08:00:16;21.90;61.20
66928;DHT22;59882;45.624;11.698;2023-05-07T08:02:42;22.00;61.00
66928;DHT22;59882;45.624;11.698;2023-05-07T08:05:08;22.10;61.10
66928;DHT22;59882;45.624;11.698;2023-05-07T08:07:34;22.20;60.70
66928;DHT22;59882;45.624;11.698;2023-05-07T08:10:00;22.20;60.50
66928;DHT22;59882;45.624;11.698;2023-05-07T08:12:25;22.30;60.40
66928;DHT22;59882;45.624;11.698;2023-05-07T08:14:51;22.30;60.20
66928;DHT22;59882;45.624;11.698;2023-05-07T08:17:17;22.30;60.30
66928;DHT22;59882;45.624;11.698;2023-05-07T08:19:43;22.40;60.50
66928;DHT22;59882;45.624;11.698;2023-05-07T08:22:09;22.40;60.30
66928;DHT22;59882;45.624;11.698;2023-05-07T08:24:36;22.40;60.50
66928;DHT22;59882;45.624;11.698;2023-05-07T08:27:02;22.60;60.40
66928;DHT22;59882;45.624;11.698;2023-05-07T08:29:27;22.60;60.30
66928;DHT22;59882;45.624;11.698;2023-05-07T08:31:53;22.70;59.90
66928;DHT22;59882;45.624;11.698;2023-05-07T08:34:19;22.70;60.20
66928;DHT22;59882;45.624;11.698;2023-05-07T08:36:45;22.80;60.30
66928;DHT22;59882;45.624;11.698;2023-05-07T08:39:14;22.90;60.10
66928;DHT22;59882;45.624;11.698;2023-05-07T08:41:40;22.90;59.60
66928;DHT22;59882;45.624;11.698;2023-05-07T08:44:12;23.00;59.90
66928;DHT22;59882;45.624;11.698;2023-05-07T08:46:39;23.10;59.70
66928;DHT22;59882;45.624;11.698;2023-05-07T08:49:07;23.20;59.60
66928;DHT22;59882;45.624;11.698;2023-05-07T08:51:33;23.30;59.40
66928;DHT22;59882;45.624;11.698;2023-05-07T08:53:59;23.30;58.50
66928;DHT22;59882;45.624;11.698;2023-05-07T08:56:26;23.30;58.70
66928;DHT22;59882;45.624;11.698;2023-05-07T08:58:52;23.40;58.00
66928;DHT22;59882;45.624;11.698;2023-05-07T09:01:21;23.40;58.70
66928;DHT22;59882;45.624;11.698;2023-05-07T09:03:47;23.40;58.50
66928;DHT22;59882;45.624;11.698;2023-05-07T09:06:13;23.50;58.10
66928;DHT22;59882;45.624;11.698;2023-05-07T09:08:39;23.50;58.20
66928;DHT22;59882;45.624;11.698;2023-05-07T09:11:05;23.50;58.10
66928;DHT22;59882;45.624;11.698;2023-05-07T09:13:30;23.50;58.00
66928;DHT22;59882;45.624;11.698;2023-05-07T09:15:56;23.60;58.50
66928;DHT22;59882;45.624;11.698;2023-05-07T09:18:24;23.70;57.60
66928;DHT22;59882;45.624;11.698;2023-05-07T09:20:50;23.80;57.90
66928;DHT22;59882;45.624;11.698;2023-05-07T09:23:16;23.70;57.60
66928;DHT22;59882;45.624;11.698;2023-05-07T09:25:42;23.70;58.00
66928;DHT22;59882;45.624;11.698;2023-05-07T09:28:07;23.80;58.40
66928;DHT22;59882;45.624;11.698;2023-05-07T09:30:35;23.80;57.30
66928;DHT22;59882;45.624;11.698;2023-05-07T09:33:02;23.80;57.20
66928;DHT22;59882;45.624;11.698;2023-05-07T09:35:29;23.80;57.50
66928;DHT22;59882;45.624;11.698;2023-05-07T09:37:56;23.70;56.70
66928;DHT22;59882;45.624;11.698;2023-05-07T09:40:23;23.70;57.20
66928;DHT22;59882;45.624;11.698;2023-05-07T09:42:49;23.80;57.30
66928;DHT22;59882;45.624;11.698;2023-05-07T09:45:16;23.70;57.60
66928;DHT22;59882;45.624;11.698;2023-05-07T09:47:48;23.80;57.80
66928;DHT22;59882;45.624;11.698;2023-05-07T09:50:15;23.90;58.20
66928;DHT22;59882;45.624;11.698;2023-05-07T09:52:42;24.00;57.60
66928;DHT22;59882;45.624;11.698;2023-05-07T09:55:09;24.00;57.10
66928;DHT22;59882;45.624;11.698;2023-05-07T09:57:36;24.10;56.80
66928;DHT22;59882;45.624;11.698;2023-05-07T10:00:03;24.00;56.10
66928;DHT22;59882;45.624;11.698;2023-05-07T10:02:35;24.10;56.60
66928;DHT22;59882;45.624;11.698;2023-05-07T10:05:02;24.00;56.40
66928;DHT22;59882;45.624;11.698;2023-05-07T10:07:29;24.00;56.20
66928;DHT22;59882;45.624;11.698;2023-05-07T10:09:55;24.00;55.70
66928;DHT22;59882;45.624;11.698;2023-05-07T10:12:21;24.10;56.70
66928;DHT22;59882;45.624;11.698;2023-05-07T10:14:47;24.20;56.10
66928;DHT22;59882;45.624;11.698;2023-05-07T10:17:16;24.20;55.40
66928;DHT22;59882;45.624;11.698;2023-05-07T10:19:44;24.30;54.70
66928;DHT22;59882;45.624;11.698;2023-05-07T10:22:10;24.40;55.50
66928;DHT22;59882;45.624;11.698;2023-05-07T10:24:37;24.40;56.20
66928;DHT22;59882;45.624;11.698;2023-05-07T10:27:08;24.60;56.20
66928;DHT22;59882;45.624;11.698;2023-05-07T10:32:42;24.90;54.80
66928;DHT22;59882;45.624;11.698;2023-05-07T10:35:16;25.20;53.60
66928;DHT22;59882;45.624;11.698;2023-05-07T10:37:44;25.40;53.60
66928;DHT22;59882;45.624;11.698;2023-05-07T10:40:10;25.50;54.10
66928;DHT22;59882;45.624;11.698;2023-05-07T10:42:37;25.60;52.80
66928;DHT22;59882;45.624;11.698;2023-05-07T10:45:15;25.70;52.00
66928;DHT22;59882;45.624;11.698;2023-05-07T10:48:14;25.80;50.80
66928;DHT22;59882;45.624;11.698;2023-05-07T10:50:41;25.90;50.90
66928;DHT22;59882;45.624;11.698;2023-05-07T10:55:48;26.10;49.50
66928;DHT22;59882;45.624;11.698;2023-05-07T11:00:47;26.20;47.90
66928;DHT22;59882;45.624;11.698;2023-05-07T11:03:13;26.10;47.60
66928;DHT22;59882;45.624;11.698;2023-05-07T11:05:41;26.00;48.00
66928;DHT22;59882;45.624;11.698;2023-05-07T11:08:08;26.00;49.40
66928;DHT22;59882;45.624;11.698;2023-05-07T11:13:17;26.00;48.90
66928;DHT22;59882;45.624;11.698;2023-05-07T11:15:47;26.00;48.40
66928;DHT22;59882;45.624;11.698;2023-05-07T11:18:15;26.00;48.10
66928;DHT22;59882;45.624;11.698;2023-05-07T11:26:05;26.20;47.60
66928;DHT22;59882;45.624;11.698;2023-05-07T11:28:37;26.30;47.50
66928;DHT22;59882;45.624;11.698;2023-05-07T11:31:03;26.40;48.00
66928;DHT22;59882;45.624;11.698;2023-05-07T11:33:30;26.50;46.70
66928;DHT22;59882;45.624;11.698;2023-05-07T11:35:56;26.50;45.40
66928;DHT22;59882;45.624;11.698;2023-05-07T11:38:21;26.50;46.50
66928;DHT22;59882;45.624;11.698;2023-05-07T11:40:50;26.60;47.00
66928;DHT22;59882;45.624;11.698;2023-05-07T11:43:17;26.80;47.10
66928;DHT22;59882;45.624;11.698;2023-05-07T11:45:43;26.90;45.40
66928;DHT22;59882;45.624;11.698;2023-05-07T11:48:09;27.00;45.60
66928;DHT22;59882;45.624;11.698;2023-05-07T11:50:35;27.00;48.00
66928;DHT22;59882;45.624;11.698;2023-05-07T11:53:07;27.10;47.70
66928;DHT22;59882;45.624;11.698;2023-05-07T11:55:33;27.10;45.20
66928;DHT22;59882;45.624;11.698;2023-05-07T11:57:58;27.20;46.90
66928;DHT22;59882;45.624;11.698;2023-05-07T12:00:24;27.30;46.30
66928;DHT22;59882;45.624;11.698;2023-05-07T12:02:50;27.20;45.00
66928;DHT22;59882;45.624;11.698;2023-05-07T12:05:16;27.10;45.80
66928;DHT22;59882;45.624;11.698;2023-05-07T12:07:41;27.10;46.60
66928;DHT22;59882;45.624;11.698;2023-05-07T12:10:07;27.00;46.90
66928;DHT22;59882;45.624;11.698;2023-05-07T12:12:40;27.20;46.80
66928;DHT22;59882;45.624;11.698;2023-05-07T12:15:07;27.30;45.50
66928;DHT22;59882;45.624;11.698;2023-05-07T12:17:33;27.40;46.10
66928;DHT22;59882;45.624;11.698;2023-05-07T12:19:59;27.30;46.10
66928;DHT22;59882;45.624;11.698;2023-05-07T12:22:25;27.40;46.80
66928;DHT22;59882;45.624;11.698;2023-05-07T12:24:58;27.50;47.10
66928;DHT22;59882;45.624;11.698;2023-05-07T12:27:24;27.70;44.90
66928;DHT22;59882;45.624;11.698;2023-05-07T12:29:51;27.80;45.80
66928;DHT22;59882;45.624;11.698;2023-05-07T12:32:18;27.90;46.40
66928;DHT22;59882;45.624;11.698;2023-05-07T12:34:44;28.10;46.90
66928;DHT22;59882;45.624;11.698;2023-05-07T12:37:10;28.30;43.70
66928;DHT22;59882;45.624;11.698;2023-05-07T12:39:36;28.50;43.60
66928;DHT22;59882;45.624;11.698;2023-05-07T12:42:02;28.50;44.10
66928;DHT22;59882;45.624;11.698;2023-05-07T12:44:32;28.90;44.00
66928;DHT22;59882;45.624;11.698;2023-05-07T12:47:01;30.20;41.40
66928;DHT22;59882;45.624;11.698;2023-05-07T12:49:27;32.00;39.60
66928;DHT22;59882;45.624;11.698;2023-05-07T12:51:53;34.10;35.70
66928;DHT22;59882;45.624;11.698;2023-05-07T12:57:06;37.80;31.60
66928;DHT22;59882;45.624;11.698;2023-05-07T12:59:37;39.30;28.60
66928;DHT22;59882;45.624;11.698;2023-05-07T13:02:04;40.40;26.50
66928;DHT22;59882;45.624;11.698;2023-05-07T13:04:30;41.40;26.50
66928;DHT22;59882;45.624;11.698;2023-05-07T13:06:56;42.30;25.20
66928;DHT22;59882;45.624;11.698;2023-05-07T13:09:22;42.80;25.20
66928;DHT22;59882;45.624;11.698;2023-05-07T13:11:47;43.00;23.50
66928;DHT22;59882;45.624;11.698;2023-05-07T13:14:13;43.00;23.90
66928;DHT22;59882;45.624;11.698;2023-05-07T13:16:39;43.00;24.30
66928;DHT22;59882;45.624;11.698;2023-05-07T13:19:04;42.60;24.30
66928;DHT22;59882;45.624;11.698;2023-05-07T13:21:30;42.20;23.70
66928;DHT22;59882;45.624;11.698;2023-05-07T13:23:58;42.20;24.50
66928;DHT22;59882;45.624;11.698;2023-05-07T13:26:24;42.40;23.20
66928;DHT22;59882;45.624;11.698;2023-05-07T13:28:50;42.50;23.80
66928;DHT22;59882;45.624;11.698;2023-05-07T13:31:17;42.70;23.70
66928;DHT22;59882;45.624;11.698;2023-05-07T13:33:42;43.30;24.60
66928;DHT22;59882;45.624;11.698;2023-05-07T13:36:08;44.00;23.80
66928;DHT22;59882;45.624;11.698;2023-05-07T13:38:34;44.60;23.70
66928;DHT22;59882;45.624;11.698;2023-05-07T13:41:00;45.00;21.40
66928;DHT22;59882;45.624;11.698;2023-05-07T13:43:26;45.30;21.80
66928;DHT22;59882;45.624;11.698;2023-05-07T13:45:51;45.60;21.40
66928;DHT22;59882;45.624;11.698;2023-05-07T13:48:17;45.90;21.70
66928;DHT22;59882;45.624;11.698;2023-05-07T13:50:42;46.00;21.30
66928;DHT22;59882;45.624;11.698;2023-05-07T13:53:08;46.00;20.20
66928;DHT22;59882;45.624;11.698;2023-05-07T13:55:34;46.10;21.00
66928;DHT22;59882;45.624;11.698;2023-05-07T13:58:01;46.10;20.90
66928;DHT22;59882;45.624;11.698;2023-05-07T14:00:28;46.00;21.10
66928;DHT22;59882;45.624;11.698;2023-05-07T14:02:55;45.90;21.60
66928;DHT22;59882;45.624;11.698;2023-05-07T14:05:21;45.90;21.10
66928;DHT22;59882;45.624;11.698;2023-05-07T14:07:50;46.00;21.50
66928;DHT22;59882;45.624;11.698;2023-05-07T14:10:17;46.00;20.60
66928;DHT22;59882;45.624;11.698;2023-05-07T14:12:44;45.90;20.80
66928;DHT22;59882;45.624;11.698;2023-05-07T14:15:10;46.00;21.50
66928;DHT22;59882;45.624;11.698;2023-05-07T14:17:36;46.00;21.80
66928;DHT22;59882;45.624;11.698;2023-05-07T14:20:01;45.70;21.20
66928;DHT22;59882;45.624;11.698;2023-05-07T14:22:27;45.50;21.50
66928;DHT22;59882;45.624;11.698;2023-05-07T14:24:53;45.10;21.20
66928;DHT22;59882;45.624;11.698;2023-05-07T14:27:18;45.00;21.70
66928;DHT22;59882;45.624;11.698;2023-05-07T14:29:44;44.90;21.60
66928;DHT22;59882;45.624;11.698;2023-05-07T14:32:11;44.70;22.40
66928;DHT22;59882;45.624;11.698;2023-05-07T14:34:36;44.40;22.40
66928;DHT22;59882;45.624;11.698;2023-05-07T14:37:02;44.20;22.70
66928;DHT22;59882;45.624;11.698;2023-05-07T14:39:28;44.10;22.00
66928;DHT22;59882;45.624;11.698;2023-05-07T14:41:54;43.90;23.10
66928;DHT22;59882;45.624;11.698;2023-05-07T14:44:21;43.70;23.00
66928;DHT22;59882;45.624;11.698;2023-05-07T14:46:47;43.50;22.20
66928;DHT22;59882;45.624;11.698;2023-05-07T14:49:14;43.20;22.80
66928;DHT22;59882;45.624;11.698;2023-05-07T14:51:48;42.90;22.90
66928;DHT22;59882;45.624;11.698;2023-05-07T14:54:14;42.50;23.40
66928;DHT22;59882;45.624;11.698;2023-05-07T14:56:40;42.10;24.10
66928;DHT22;59882;45.624;11.698;2023-05-07T14:59:07;41.60;24.40
66928;DHT22;59882;45.624;11.698;2023-05-07T15:01:34;41.00;24.80
66928;DHT22;59882;45.624;11.698;2023-05-07T15:04:00;40.70;25.00
66928;DHT22;59882;45.624;11.698;2023-05-07T15:06:26;40.30;25.50
66928;DHT22;59882;45.624;11.698;2023-05-07T15:08:52;39.90;26.10
66928;DHT22;59882;45.624;11.698;2023-05-07T15:11:17;39.50;25.80
66928;DHT22;59882;45.624;11.698;2023-05-07T15:13:43;38.60;26.60
66928;DHT22;59882;45.624;11.698;2023-05-07T15:16:09;37.90;27.30
66928;DHT22;59882;45.624;11.698;2023-05-07T15:18:34;37.30;28.00
66928;DHT22;59882;45.624;11.698;2023-05-07T15:21:00;37.00;29.00
66928;DHT22;59882;45.624;11.698;2023-05-07T15:23:26;36.70;28.80
66928;DHT22;59882;45.624;11.698;2023-05-07T15:25:52;36.20;29.20
66928;DHT22;59882;45.624;11.698;2023-05-07T15:28:18;35.70;29.80
66928;DHT22;59882;45.624;11.698;2023-05-07T15:30:43;35.10;30.30